Time;durP1;ratioP1;P1;durP2;ratioP2;P2;SDS_P1;SDS_P2;PMS_P1;PMS_P2;Temp;Humidity;BMP_temperature;BMP_pressure;BME280_temperature;BME280_humidity;BME280_pressure;Samples;Min_cycle;Max_cycle;Signal;HPM_P1;HPM_P2
2023/03/25 00:03:27;;;;;;;;;;;;;;;8.97;90.30859;100044.4;;;;-76
2023/03/25 00:08:27;;;;;;;;;;;;;;;8.94;91.49023;100055.5;;;;-76
2023/03/25 00:13:30;;;;;;;;;;;;;;;8.92;91.71484;100062.3;;;;-75
2023/03/25 00:13:52;;;;;;;17.2;2.4;;;;;;;;;;;;;-76
2023/03/25 00:18:34;;;;;;;;;;;;;;;8.88;92.25781;100060.8;;;;-76
2023/03/25 00:23:31;;;;;;;;;;;;;;;8.85;92.2832;100049.4;;;;-75
2023/03/25 00:28:28;;;;;;;;;;;;;;;8.82;92.06738;100045.2;;;;-75
2023/03/25 00:33:32;;;;;;;;;;;;;;;8.77;91.89453;100035.6;;;;-75
2023/03/25 00:38:32;;;;;;;;;;;;;;;8.73;92.05176;100040.4;;;;-76
2023/03/25 00:43:28;;;;;;;;;;;;;;;8.7;92.32715;100041.6;;;;-75
2023/03/25 00:43:54;;;;;;;15.8;2.5;;;;;;;;;;;;;-76
2023/03/25 00:48:28;;;;;;;;;;;;;;;8.66;91.97949;100037.1;;;;-74
2023/03/25 00:53:27;;;;;;;;;;;;;;;8.62;92.04688;100027.6;;;;-75
2023/03/25 00:58:27;;;;;;;;;;;;;;;8.58;92.1377;100026;;;;-76
2023/03/25 01:03:27;;;;;;;;;;;;;;;8.57;91.87305;100046.6;;;;-76
2023/03/25 01:08:28;;;;;;;;;;;;;;;8.55;92.24414;100035.3;;;;-77
2023/03/25 01:13:27;;;;;;;;;;;;;;;8.54;91.94336;100037;;;;-75
2023/03/25 01:13:53;;;;;;;15.7;2.2;;;;;;;;;;;;;-75
2023/03/25 01:18:27;;;;;;;;;;;;;;;8.56;92.06836;100040.6;;;;-77
2023/03/25 01:23:27;;;;;;;;;;;;;;;8.58;92.18164;100047.7;;;;-75
2023/03/25 01:28:28;;;;;;;;;;;;;;;8.59;92.10742;100037.6;;;;-76
2023/03/25 01:33:27;;;;;;;;;;;;;;;8.6;92.29492;100040.5;;;;-75
2023/03/25 01:38:29;;;;;;;;;;;;;;;8.6;92.37402;100027.4;;;;-74
2023/03/25 01:43:27;;;;;;;;;;;;;;;8.62;92.69434;100028.5;;;;-75
2023/03/25 01:44:09;;;;;;;21;2.4;;;;;;;;;;;;;-75
2023/03/25 01:48:31;;;;;;;;;;;;;;;8.61;92.88965;100027.8;;;;-76
2023/03/25 01:53:43;;;;;;;;;;;;;;;8.59;93.10742;100038.9;;;;-74
2023/03/25 01:58:29;;;;;;;;;;;;;;;8.6;93.03027;100024.9;;;;-75
2023/03/25 02:03:27;;;;;;;;;;;;;;;8.58;93.1582;100018.1;;;;-78
2023/03/25 02:08:31;;;;;;;;;;;;;;;8.59;93.2041;100025.5;;;;-75
2023/03/25 02:13:29;;;;;;;;;;;;;;;8.59;93.10742;100019;;;;-75
2023/03/25 02:13:54;;;;;;;14.9;2.3;;;;;;;;;;;;;-75
2023/03/25 02:18:33;;;;;;;;;;;;;;;8.61;93.10059;100026.1;;;;-75
2023/03/25 02:23:41;;;;;;;;;;;;;;;8.6;93.31836;100023.7;;;;-75
2023/03/25 02:28:35;;;;;;;;;;;;;;;8.6;93.6582;100009;;;;-75
2023/03/25 02:33:40;;;;;;;;;;;;;;;8.58;93.48926;100013.3;;;;-75
2023/03/25 02:38:36;;;;;;;;;;;;;;;8.56;93.50586;100012.2;;;;-76
2023/03/25 02:43:29;;;;;;;;;;;;;;;8.56;93.64844;100006.8;;;;-75
2023/03/25 02:44:04;;;;;;;21.4;2.4;;;;;;;;;;;;;-75
2023/03/25 02:48:32;;;;;;;;;;;;;;;8.55;93.62402;100008.9;;;;-75
2023/03/25 02:53:32;;;;;;;;;;;;;;;8.54;93.67773;100005.2;;;;-74
2023/03/25 02:58:28;;;;;;;;;;;;;;;8.52;94.12305;99999.23;;;;-75
2023/03/25 03:03:27;;;;;;;;;;;;;;;8.49;93.79688;99997.6;;;;-75
2023/03/25 03:08:32;;;;;;;;;;;;;;;8.49;94.04004;99984.38;;;;-74
2023/03/25 03:13:33;;;;;;;;;;;;;;;8.47;93.86133;99986.69;;;;-74
2023/03/25 03:14:02;;;;;;;22.7;2.8;;;;;;;;;;;;;-75
2023/03/25 03:18:33;;;;;;;;;;;;;;;8.48;94.11523;99967.11;;;;-75
2023/03/25 03:23:32;;;;;;;;;;;;;;;8.46;94.09863;99979.19;;;;-76
2023/03/25 03:28:30;;;;;;;;;;;;;;;8.45;94.37891;99988.83;;;;-75
2023/03/25 03:33:30;;;;;;;;;;;;;;;8.43;94.36621;99979.69;;;;-75
2023/03/25 03:38:28;;;;;;;;;;;;;;;8.43;94.72852;99990.72;;;;-76
2023/03/25 03:43:29;;;;;;;;;;;;;;;8.42;94.75879;99973.58;;;;-75
2023/03/25 03:44:01;;;;;;;23.4;2.9;;;;;;;;;;;;;-76
2023/03/25 03:48:32;;;;;;;;;;;;;;;8.41;94.88867;99985.33;;;;-76
2023/03/25 03:53:32;;;;;;;;;;;;;;;8.43;95.01367;99984.8;;;;-75
2023/03/25 03:58:29;;;;;;;;;;;;;;;8.39;95.02539;99988.39;;;;-75
2023/03/25 04:03:33;;;;;;;;;;;;;;;8.37;94.88965;99989.55;;;;-75
2023/03/25 04:08:32;;;;;;;;;;;;;;;8.33;94.70605;99993.7;;;;-76
2023/03/25 04:13:29;;;;;;;;;;;;;;;8.29;94.6416;99996.7;;;;-77
2023/03/25 04:14:00;;;;;;;19.2;2.7;;;;;;;;;;;;;-74
2023/03/25 04:18:27;;;;;;;;;;;;;;;8.26;94.85742;99963.27;;;;-76
2023/03/25 04:23:32;;;;;;;;;;;;;;;8.22;94.63672;99983.73;;;;-74
2023/03/25 04:28:27;;;;;;;;;;;;;;;8.22;94.58203;99978.47;;;;-74
2023/03/25 04:33:28;;;;;;;;;;;;;;;8.21;94.5498;99979.63;;;;-75
2023/03/25 04:38:28;;;;;;;;;;;;;;;8.22;95.04199;99991.13;;;;-74
2023/03/25 04:43:29;;;;;;;;;;;;;;;8.21;95.06445;100004.9;;;;-75
2023/03/25 04:44:01;;;;;;;17.5;2.2;;;;;;;;;;;;;-76
2023/03/25 04:48:29;;;;;;;;;;;;;;;8.2;94.91992;100006.4;;;;-74
2023/03/25 04:53:27;;;;;;;;;;;;;;;8.22;94.8125;99993.53;;;;-76
2023/03/25 04:58:27;;;;;;;;;;;;;;;8.22;94.50781;100003.2;;;;-75
2023/03/25 05:03:28;;;;;;;;;;;;;;;8.21;94.20996;100008.1;;;;-75
2023/03/25 05:08:33;;;;;;;;;;;;;;;8.22;94.38672;100000.9;;;;-75
2023/03/25 05:13:29;;;;;;;;;;;;;;;8.2;94.47949;100002;;;;-76
2023/03/25 05:13:59;;;;;;;16.5;2.3;;;;;;;;;;;;;-73
2023/03/25 05:18:27;;;;;;;;;;;;;;;8.15;94.12988;100001.9;;;;-76
2023/03/25 05:23:27;;;;;;;;;;;;;;;8.1;94.2168;100003.5;;;;-75
2023/03/25 05:28:30;;;;;;;;;;;;;;;8.07;94.36426;100008.2;;;;-75
2023/03/25 05:33:27;;;;;;;;;;;;;;;8.04;94.27051;100024;;;;-75
2023/03/25 05:38:32;;;;;;;;;;;;;;;8.05;94.38281;100018.8;;;;-76
2023/03/25 05:43:34;;;;;;;;;;;;;;;8.06;94.28613;100010.5;;;;-75
2023/03/25 05:44:00;;;;;;;17.1;2.2;;;;;;;;;;;;;-76
2023/03/25 05:48:34;;;;;;;;;;;;;;;8.08;93.99414;100020.5;;;;-76
2023/03/25 05:53:29;;;;;;;;;;;;;;;8.1;94;100018.8;;;;-76
2023/03/25 05:58:35;;;;;;;;;;;;;;;8.13;94.00781;100034;;;;-75
2023/03/25 06:03:27;;;;;;;;;;;;;;;8.17;94.01367;100036.6;;;;-77
2023/03/25 06:08:30;;;;;;;;;;;;;;;8.17;94.32031;100042.5;;;;-76
2023/03/25 06:13:27;;;;;;;;;;;;;;;8.15;95.19238;100043.6;;;;-76
2023/03/25 06:14:01;;;;;;;12.6;2.2;;;;;;;;;;;;;-75
2023/03/25 06:23:27;;;;;;;;;;;;;;;8.11;95.55469;100049.8;;;;-77
2023/03/25 06:28:27;;;;;;;;;;;;;;;8.1;95.59668;100039.9;;;;-76
2023/03/25 06:33:27;;;;;;;;;;;;;;;8.11;95.65527;100053.6;;;;-77
2023/03/25 06:38:28;;;;;;;;;;;;;;;8.13;95.85742;100049.7;;;;-76
2023/03/25 06:43:29;;;;;;;;;;;;;;;8.16;95.68945;100051.2;;;;-76
2023/03/25 06:44:02;;;;;;;17;2;;;;;;;;;;;;;-76
2023/03/25 06:48:27;;;;;;;;;;;;;;;8.18;95.2666;100045.5;;;;-75
2023/03/25 06:53:31;;;;;;;;;;;;;;;8.24;95.19043;100060.5;;;;-76
2023/03/25 06:58:33;;;;;;;;;;;;;;;8.31;95.07324;100055.7;;;;-75
2023/03/25 07:03:30;;;;;;;;;;;;;;;8.35;94.72168;100052.7;;;;-75
2023/03/25 07:08:27;;;;;;;;;;;;;;;8.37;94.32227;100063.2;;;;-76
2023/03/25 07:13:27;;;;;;;;;;;;;;;8.39;94.19434;100053.2;;;;-75
2023/03/25 07:14:02;;;;;;;18.4;2.5;;;;;;;;;;;;;-76
2023/03/25 07:18:29;;;;;;;;;;;;;;;8.43;94.08105;100056.7;;;;-76
2023/03/25 07:23:27;;;;;;;;;;;;;;;8.47;93.8916;100072.8;;;;-76
2023/03/25 07:28:28;;;;;;;;;;;;;;;8.51;93.55078;100080.9;;;;-75
2023/03/25 07:33:27;;;;;;;;;;;;;;;8.54;93.65527;100075.5;;;;-76
2023/03/25 07:38:30;;;;;;;;;;;;;;;8.57;93.8125;100062.6;;;;-76
2023/03/25 07:43:31;;;;;;;;;;;;;;;8.68;93.61914;100076.8;;;;-76
2023/03/25 07:52:55;;;;;;;;;;;;;;;8.92;92.75781;100084.5;;;;-75
2023/03/25 07:57:47;;;;;;;;;;;;;;;8.99;92.26855;100077.6;;;;-74
2023/03/25 08:02:45;;;;;;;;;;;;;;;9.04;92.10449;100073.2;;;;-76
2023/03/25 08:07:46;;;;;;;;;;;;;;;9.07;91.92285;100086.3;;;;-76
2023/03/25 08:12:44;;;;;;;;;;;;;;;9.24;91.54199;100098.7;;;;-76
2023/03/25 08:14:13;;;;;;;14.5;2;;;;;;;;;;;;;-76
2023/03/25 08:17:50;;;;;;;;;;;;;;;9.36;90.97266;100102.2;;;;-76
2023/03/25 08:22:47;;;;;;;;;;;;;;;9.48;90.63477;100093;;;;-76
2023/03/25 08:27:47;;;;;;;;;;;;;;;9.6;89.7998;100109.7;;;;-76
2023/03/25 08:32:44;;;;;;;;;;;;;;;9.56;89.99121;100106.4;;;;-76
2023/03/25 08:37:44;;;;;;;;;;;;;;;9.61;90.23145;100119.7;;;;-77
2023/03/25 08:42:45;;;;;;;;;;;;;;;9.63;89.58789;100124.8;;;;-74
2023/03/25 08:44:03;;;;;;;15.1;1.9;;;;;;;;;;;;;-76
2023/03/25 08:47:44;;;;;;;;;;;;;;;9.64;89.40234;100122.8;;;;-75
2023/03/25 08:52:44;;;;;;;;;;;;;;;9.61;88.99805;100123.2;;;;-75
2023/03/25 08:57:43;;;;;;;;;;;;;;;9.62;88.98926;100142.2;;;;-75
2023/03/25 09:02:43;;;;;;;;;;;;;;;9.74;89.2002;100112.5;;;;-75
2023/03/25 09:07:43;;;;;;;;;;;;;;;9.87;88.61133;100128.4;;;;-75
2023/03/25 09:12:43;;;;;;;;;;;;;;;9.92;87.81641;100126;;;;-75
2023/03/25 09:14:05;;;;;;;12.8;2;;;;;;;;;;;;;-76
2023/03/25 09:17:43;;;;;;;;;;;;;;;9.96;87.83594;100120.8;;;;-75
2023/03/25 09:22:44;;;;;;;;;;;;;;;10;87.34863;100125.6;;;;-75
2023/03/25 09:27:44;;;;;;;;;;;;;;;9.99;87.03516;100144.2;;;;-76
2023/03/25 09:32:50;;;;;;;;;;;;;;;9.96;86.72266;100135.8;;;;-76
2023/03/25 09:37:45;;;;;;;;;;;;;;;9.98;86.74805;100141.4;;;;-75
2023/03/25 09:43:07;;;;;;;;;;;;;;;10.06;86.6543;100149.3;;;;-76
2023/03/25 09:44:12;;;;;;;13.2;2.1;;;;;;;;;;;;;-76
2023/03/25 09:52:54;;;;;;;;;;;;;;;10.13;86.19434;100151.8;;;;-76
2023/03/25 09:57:47;;;;;;;;;;;;;;;10.17;85.46191;100148.9;;;;-76
2023/03/25 10:07:55;;;;;;;;;;;;;;;10.39;84.9209;100142.7;;;;-74
2023/03/25 10:12:46;;;;;;;;;;;;;;;10.49;84.87207;100190.7;;;;-75
2023/03/25 10:14:13;;;;;;;15.8;1.8;;;;;;;;;;;;;-76
2023/03/25 10:17:53;;;;;;;;;;;;;;;10.57;84.83301;100169.4;;;;-75
2023/03/25 10:22:52;;;;;;;;;;;;;;;10.69;84.60156;100170.7;;;;-76
2023/03/25 10:27:46;;;;;;;;;;;;;;;11.05;84.61719;100165.2;;;;-75
2023/03/25 10:32:44;;;;;;;;;;;;;;;11.39;82.91016;100169.2;;;;-75
2023/03/25 10:37:46;;;;;;;;;;;;;;;11.64;81.99414;100166.5;;;;-75
2023/03/25 10:42:50;;;;;;;;;;;;;;;11.51;81.10352;100178.5;;;;-75
2023/03/25 10:44:10;;;;;;;15.4;2.3;;;;;;;;;;;;;-75
2023/03/25 10:47:53;;;;;;;;;;;;;;;11.42;80.94238;100190;;;;-75
2023/03/25 10:52:48;;;;;;;;;;;;;;;11.48;81.17578;100188.4;;;;-74
2023/03/25 10:57:45;;;;;;;;;;;;;;;11.57;80.61621;100182.5;;;;-76
2023/03/25 11:02:43;;;;;;;;;;;;;;;11.58;81.10645;100200.8;;;;-74
2023/03/25 11:07:44;;;;;;;;;;;;;;;11.5;80.18164;100203.9;;;;-74
2023/03/25 11:12:45;;;;;;;;;;;;;;;11.64;80.46387;100187.3;;;;-75
2023/03/25 11:14:08;;;;;;;14.2;2.3;;;;;;;;;;;;;-73
2023/03/25 11:17:43;;;;;;;;;;;;;;;11.84;80.07813;100205.3;;;;-75
2023/03/25 11:22:49;;;;;;;;;;;;;;;11.94;78.89648;100186.3;;;;-75
2023/03/25 11:27:47;;;;;;;;;;;;;;;12.07;79.30957;100207;;;;-75
2023/03/25 11:32:43;;;;;;;;;;;;;;;12.12;79.45117;100187.1;;;;-76
2023/03/25 11:37:51;;;;;;;;;;;;;;;12;79.5293;100187.7;;;;-75
2023/03/25 11:42:48;;;;;;;;;;;;;;;12.02;78.86816;100206.3;;;;-75
2023/03/25 11:44:10;;;;;;;16.9;2.6;;;;;;;;;;;;;-74
2023/03/25 11:47:43;;;;;;;;;;;;;;;12.04;78.62695;100226.5;;;;-75
2023/03/25 11:52:46;;;;;;;;;;;;;;;12.16;78.23535;100198.8;;;;-75
2023/03/25 11:57:43;;;;;;;;;;;;;;;12.13;78.80859;100226.8;;;;-75
2023/03/25 12:02:43;;;;;;;;;;;;;;;12.23;78.27051;100193.3;;;;-75
2023/03/25 12:07:48;;;;;;;;;;;;;;;12.29;78.41699;100192;;;;-75
2023/03/25 12:12:49;;;;;;;;;;;;;;;12.46;78.2002;100189;;;;-79
2023/03/25 12:14:26;;;;;;;17.9;2.4;;;;;;;;;;;;;-74
2023/03/25 12:17:52;;;;;;;;;;;;;;;12.49;77.93945;100213.7;;;;-74
2023/03/25 12:22:50;;;;;;;;;;;;;;;12.49;77.56152;100193.1;;;;-74
2023/03/25 12:27:51;;;;;;;;;;;;;;;12.62;77.45215;100207;;;;-74
2023/03/25 12:32:48;;;;;;;;;;;;;;;12.75;77.31738;100190.4;;;;-75
2023/03/25 12:37:53;;;;;;;;;;;;;;;12.76;77.16406;100205.9;;;;-75
2023/03/25 12:42:48;;;;;;;;;;;;;;;12.64;76.60938;100196.8;;;;-73
2023/03/25 12:44:17;;;;;;;16.9;2.1;;;;;;;;;;;;;-74
2023/03/25 12:47:45;;;;;;;;;;;;;;;12.67;76.69043;100188.6;;;;-71
2023/03/25 12:52:46;;;;;;;;;;;;;;;12.75;76.09277;100214;;;;-74
2023/03/25 12:57:50;;;;;;;;;;;;;;;12.76;76.29395;100201.9;;;;-74
2023/03/25 13:02:57;;;;;;;;;;;;;;;12.74;76.76953;100209;;;;-75
2023/03/25 13:07:47;;;;;;;;;;;;;;;12.76;75.2041;100202.9;;;;-75
2023/03/25 13:12:46;;;;;;;;;;;;;;;12.86;74.28613;100205;;;;-74
2023/03/25 13:14:18;;;;;;;11.1;1.5;;;;;;;;;;;;;-74
2023/03/25 13:17:47;;;;;;;;;;;;;;;12.89;74.01172;100220;;;;-76
2023/03/25 13:22:45;;;;;;;;;;;;;;;12.93;75.19922;100206.3;;;;-74
2023/03/25 13:27:44;;;;;;;;;;;;;;;12.92;74.5293;100230.9;;;;-74
2023/03/25 13:32:46;;;;;;;;;;;;;;;12.9;74.31445;100241.8;;;;-74
2023/03/25 13:37:44;;;;;;;;;;;;;;;13.03;73.48828;100239.2;;;;-75
2023/03/25 13:42:46;;;;;;;;;;;;;;;13;73.07129;100254.9;;;;-74
2023/03/25 13:44:19;;;;;;;8.9;1.3;;;;;;;;;;;;;-74
2023/03/25 13:47:46;;;;;;;;;;;;;;;12.88;73.61914;100244.8;;;;-75
2023/03/25 13:52:46;;;;;;;;;;;;;;;12.84;74.5166;100262.5;;;;-76
2023/03/25 13:57:55;;;;;;;;;;;;;;;12.63;74.47949;100249.7;;;;-75
2023/03/25 14:03:07;;;;;;;;;;;;;;;12.5;76.30566;100274.4;;;;-75
2023/03/25 14:08:03;;;;;;;;;;;;;;;12.32;77.79883;100281.9;;;;-75
2023/03/25 14:12:46;;;;;;;;;;;;;;;12.07;79.26367;100290.8;;;;-76
2023/03/25 14:14:24;;;;;;;7.7;1.3;;;;;;;;;;;;;-76
2023/03/25 14:17:45;;;;;;;;;;;;;;;11.8;80.72461;100308.5;;;;-75
2023/03/25 14:22:45;;;;;;;;;;;;;;;11.48;81.61914;100312.6;;;;-77
2023/03/25 14:27:51;;;;;;;;;;;;;;;11.21;81.58008;100317.8;;;;-76
2023/03/25 14:32:44;;;;;;;;;;;;;;;11.01;82.78223;100341.2;;;;-76
2023/03/25 14:37:43;;;;;;;;;;;;;;;10.89;83.67676;100340.5;;;;-75
2023/03/25 14:42:54;;;;;;;;;;;;;;;10.76;82.9668;100349.5;;;;-76
2023/03/25 14:44:26;;;;;;;4.5;1.1;;;;;;;;;;;;;-75
2023/03/25 14:47:53;;;;;;;;;;;;;;;10.67;84.35547;100345.8;;;;-75
2023/03/25 14:52:46;;;;;;;;;;;;;;;10.62;83.94824;100340.5;;;;-75
2023/03/25 14:57:47;;;;;;;;;;;;;;;10.57;84.07031;100338.9;;;;-75
2023/03/25 15:02:44;;;;;;;;;;;;;;;10.62;84.14746;100353;;;;-75
2023/03/25 15:07:48;;;;;;;;;;;;;;;10.56;83.85742;100361.7;;;;-76
2023/03/25 15:12:44;;;;;;;;;;;;;;;10.5;83.50391;100371.2;;;;-75
2023/03/25 15:14:23;;;;;;;8.3;0.9;;;;;;;;;;;;;-75
2023/03/25 15:17:47;;;;;;;;;;;;;;;10.46;83.72949;100376.5;;;;-75
2023/03/25 15:22:47;;;;;;;;;;;;;;;10.37;83.61035;100383.4;;;;-75
2023/03/25 15:27:58;;;;;;;;;;;;;;;10.3;84.0625;100391.7;;;;-75
2023/03/25 15:32:53;;;;;;;;;;;;;;;10.28;84.08105;100392.3;;;;-75
2023/03/25 15:37:56;;;;;;;;;;;;;;;10.27;84.66406;100396;;;;-75
2023/03/25 15:42:52;;;;;;;;;;;;;;;10.25;84.20801;100396.5;;;;-75
2023/03/25 15:44:33;;;;;;;8.1;1.2;;;;;;;;;;;;;-74
2023/03/25 15:47:54;;;;;;;;;;;;;;;10.24;84.39453;100399.8;;;;-75
2023/03/25 15:52:55;;;;;;;;;;;;;;;10.24;84.26172;100409.2;;;;-75
2023/03/25 15:57:47;;;;;;;;;;;;;;;10.15;85.21582;100438.8;;;;-75
2023/03/25 16:02:51;;;;;;;;;;;;;;;10.08;84.75977;100430.6;;;;-75
2023/03/25 16:07:44;;;;;;;;;;;;;;;10.02;85.54395;100444.4;;;;-76
2023/03/25 16:12:45;;;;;;;;;;;;;;;9.91;85.99512;100440.7;;;;-75
2023/03/25 16:14:24;;;;;;;6.1;0.9;;;;;;;;;;;;;-76
2023/03/25 16:17:45;;;;;;;;;;;;;;;9.83;85.35254;100441.8;;;;-76
2023/03/25 16:22:45;;;;;;;;;;;;;;;9.73;85.96094;100448;;;;-75
2023/03/25 16:27:45;;;;;;;;;;;;;;;9.63;86.17285;100444.9;;;;-75
2023/03/25 16:32:45;;;;;;;;;;;;;;;9.62;86.40039;100454.3;;;;-76
2023/03/25 16:37:43;;;;;;;;;;;;;;;9.59;86.7041;100460.8;;;;-75
2023/03/25 16:42:43;;;;;;;;;;;;;;;9.5;85.98047;100475.9;;;;-74
2023/03/25 16:44:26;;;;;;;5.8;1;;;;;;;;;;;;;-74
2023/03/25 16:47:43;;;;;;;;;;;;;;;9.43;86.91504;100478.7;;;;-74
2023/03/25 16:52:45;;;;;;;;;;;;;;;9.41;86.25977;100480.9;;;;-75
2023/03/25 16:57:44;;;;;;;;;;;;;;;9.38;85.91504;100479.8;;;;-75
2023/03/25 17:02:47;;;;;;;;;;;;;;;9.38;86.04688;100491.2;;;;-75
2023/03/25 17:07:44;;;;;;;;;;;;;;;9.37;86.21094;100492.7;;;;-75
2023/03/25 17:12:45;;;;;;;;;;;;;;;9.33;86.43262;100499.4;;;;-75
2023/03/25 17:14:27;;;;;;;6.9;1.3;;;;;;;;;;;;;-75
2023/03/25 17:17:48;;;;;;;;;;;;;;;9.34;86.77441;100506.6;;;;-73
2023/03/25 17:22:43;;;;;;;;;;;;;;;9.29;86.29395;100511.2;;;;-74
2023/03/25 17:27:43;;;;;;;;;;;;;;;9.26;87.00195;100509.2;;;;-74
2023/03/25 17:32:47;;;;;;;;;;;;;;;9.22;86.60938;100518.9;;;;-75
2023/03/25 17:37:43;;;;;;;;;;;;;;;9.19;86.89063;100534.9;;;;-76
2023/03/25 17:42:43;;;;;;;;;;;;;;;9.15;86.81543;100540.2;;;;-76
2023/03/25 17:44:27;;;;;;;7.2;1.8;;;;;;;;;;;;;-75
2023/03/25 17:47:43;;;;;;;;;;;;;;;9.09;86.74707;100539.4;;;;-76
2023/03/25 17:52:43;;;;;;;;;;;;;;;9.05;86.77344;100547.4;;;;-75
2023/03/25 17:57:44;;;;;;;;;;;;;;;9;87.07031;100557.3;;;;-76
2023/03/25 18:02:43;;;;;;;;;;;;;;;8.92;86.8584;100570.7;;;;-75
2023/03/25 18:07:43;;;;;;;;;;;;;;;8.86;87.23047;100580.5;;;;-76
2023/03/25 18:12:43;;;;;;;;;;;;;;;8.82;87.33301;100589.1;;;;-75
2023/03/25 18:14:28;;;;;;;4.2;1.3;;;;;;;;;;;;;-76
2023/03/25 18:17:43;;;;;;;;;;;;;;;8.8;87.69043;100590.7;;;;-75
2023/03/25 18:22:43;;;;;;;;;;;;;;;8.78;87.65527;100601.9;;;;-76
2023/03/25 18:27:44;;;;;;;;;;;;;;;8.74;87.36035;100601.5;;;;-75
2023/03/25 18:32:43;;;;;;;;;;;;;;;8.7;87.47363;100608;;;;-75
2023/03/25 18:37:43;;;;;;;;;;;;;;;8.64;87.76855;100614.8;;;;-76
2023/03/25 18:42:43;;;;;;;;;;;;;;;8.57;87.67773;100628;;;;-75
2023/03/25 18:44:30;;;;;;;5.8;1.1;;;;;;;;;;;;;-76
2023/03/25 18:47:43;;;;;;;;;;;;;;;8.49;87.8916;100629.2;;;;-76
2023/03/25 18:52:43;;;;;;;;;;;;;;;8.43;87.86816;100626.8;;;;-75
2023/03/25 18:57:43;;;;;;;;;;;;;;;8.39;88.43359;100639.2;;;;-75
2023/03/25 19:02:43;;;;;;;;;;;;;;;8.37;88.57227;100650.6;;;;-76
2023/03/25 19:07:46;;;;;;;;;;;;;;;8.38;88.66016;100653.1;;;;-76
2023/03/25 19:12:44;;;;;;;;;;;;;;;8.34;88.45508;100652.5;;;;-77
2023/03/25 19:14:41;;;;;;;6.9;1.3;;;;;;;;;;;;;-76
2023/03/25 19:17:43;;;;;;;;;;;;;;;8.3;88.77539;100652.8;;;;-75
2023/03/25 19:22:43;;;;;;;;;;;;;;;8.19;89.14844;100653.3;;;;-76
2023/03/25 19:27:45;;;;;;;;;;;;;;;8.14;88.74414;100655.3;;;;-75
2023/03/25 19:32:43;;;;;;;;;;;;;;;8.06;89.16602;100660.2;;;;-76
2023/03/25 19:37:49;;;;;;;;;;;;;;;7.98;89.31543;100668.8;;;;-76
2023/03/25 19:42:46;;;;;;;;;;;;;;;7.93;89.39258;100676.3;;;;-76
2023/03/25 19:44:31;;;;;;;5.3;1.2;;;;;;;;;;;;;-75
2023/03/25 19:47:44;;;;;;;;;;;;;;;7.89;89.29688;100676.4;;;;-76
2023/03/25 19:52:43;;;;;;;;;;;;;;;7.89;89.22949;100680.5;;;;-76
2023/03/25 19:57:44;;;;;;;;;;;;;;;7.88;89.12891;100677.3;;;;-76
2023/03/25 20:02:43;;;;;;;;;;;;;;;7.95;89.85645;100679.3;;;;-75
2023/03/25 20:07:44;;;;;;;;;;;;;;;7.91;89.79199;100677.9;;;;-76
2023/03/25 20:12:43;;;;;;;;;;;;;;;7.92;89.80566;100676;;;;-76
2023/03/25 20:14:32;;;;;;;7.8;1.3;;;;;;;;;;;;;-75
2023/03/25 20:17:43;;;;;;;;;;;;;;;7.94;89.63574;100675.7;;;;-75
2023/03/25 20:22:43;;;;;;;;;;;;;;;7.95;89.57129;100677.4;;;;-76
2023/03/25 20:27:44;;;;;;;;;;;;;;;7.97;89.53125;100676.8;;;;-76
2023/03/25 20:32:44;;;;;;;;;;;;;;;7.95;89.87891;100675.7;;;;-76
2023/03/25 20:37:43;;;;;;;;;;;;;;;7.92;89.92773;100671.8;;;;-76
2023/03/25 20:42:44;;;;;;;;;;;;;;;7.89;89.96582;100680.4;;;;-75
2023/03/25 20:44:33;;;;;;;6.3;1.2;;;;;;;;;;;;;-74
2023/03/25 20:47:47;;;;;;;;;;;;;;;7.84;89.95508;100682.5;;;;-76
2023/03/25 20:52:43;;;;;;;;;;;;;;;7.82;89.97266;100684.2;;;;-74
2023/03/25 20:57:43;;;;;;;;;;;;;;;7.81;90.19043;100694.8;;;;-75
2023/03/25 21:02:43;;;;;;;;;;;;;;;7.79;90.14258;100695.8;;;;-75
2023/03/25 21:07:47;;;;;;;;;;;;;;;7.73;90.07422;100688.4;;;;-75
2023/03/25 21:12:43;;;;;;;;;;;;;;;7.72;90.26855;100692.7;;;;-76
2023/03/25 21:14:34;;;;;;;4;0.9;;;;;;;;;;;;;-76
2023/03/25 21:17:43;;;;;;;;;;;;;;;7.67;90.01758;100697;;;;-76
2023/03/25 21:22:46;;;;;;;;;;;;;;;7.61;90.05078;100692.5;;;;-74
2023/03/25 21:27:43;;;;;;;;;;;;;;;7.59;90.14551;100697.2;;;;-74
2023/03/25 21:32:43;;;;;;;;;;;;;;;7.54;89.93652;100696.5;;;;-76
2023/03/25 21:37:43;;;;;;;;;;;;;;;7.46;89.75488;100705.9;;;;-78
2023/03/25 21:42:44;;;;;;;;;;;;;;;7.41;89.87695;100701;;;;-76
2023/03/25 21:44:35;;;;;;;3.8;0.7;;;;;;;;;;;;;-76
2023/03/25 21:47:43;;;;;;;;;;;;;;;7.33;89.99219;100696.9;;;;-79
2023/03/25 21:52:46;;;;;;;;;;;;;;;7.28;89.85156;100705.1;;;;-78
2023/03/25 21:57:43;;;;;;;;;;;;;;;7.21;89.97852;100721;;;;-75
2023/03/25 22:02:46;;;;;;;;;;;;;;;7.13;89.87402;100728.3;;;;-74
2023/03/25 22:07:43;;;;;;;;;;;;;;;7.11;90.09766;100733;;;;-73
2023/03/25 22:12:44;;;;;;;;;;;;;;;7.1;90.09668;100742.9;;;;-77
2023/03/25 22:14:36;;;;;;;2.9;0.6;;;;;;;;;;;;;-75
2023/03/25 22:17:43;;;;;;;;;;;;;;;7.11;90.23145;100749.8;;;;-76
2023/03/25 22:22:43;;;;;;;;;;;;;;;7.12;90.4082;100751.3;;;;-76
2023/03/25 22:27:43;;;;;;;;;;;;;;;7.13;90.36621;100757.1;;;;-75
2023/03/25 22:32:43;;;;;;;;;;;;;;;7.13;90.39941;100763.6;;;;-75
2023/03/25 22:37:45;;;;;;;;;;;;;;;7.16;90.59277;100773.5;;;;-76
2023/03/25 22:42:44;;;;;;;;;;;;;;;7.18;90.1582;100774.6;;;;-76
2023/03/25 22:44:43;;;;;;;4;0.8;;;;;;;;;;;;;-76
2023/03/25 22:47:43;;;;;;;;;;;;;;;7.19;90.56543;100785.5;;;;-76
2023/03/25 22:52:45;;;;;;;;;;;;;;;7.2;90.73145;100778.2;;;;-75
2023/03/25 22:57:43;;;;;;;;;;;;;;;7.21;90.75781;100784.1;;;;-75
2023/03/25 23:02:45;;;;;;;;;;;;;;;7.21;90.18652;100779.3;;;;-75
2023/03/25 23:07:45;;;;;;;;;;;;;;;7.22;90.12207;100781.2;;;;-77
2023/03/25 23:12:43;;;;;;;;;;;;;;;7.26;90.2832;100783.2;;;;-76
2023/03/25 23:14:44;;;;;;;4.7;1.1;;;;;;;;;;;;;-75
2023/03/25 23:17:43;;;;;;;;;;;;;;;7.25;90.30371;100783.2;;;;-76
2023/03/25 23:22:45;;;;;;;;;;;;;;;7.26;90.51465;100779.6;;;;-75
2023/03/25 23:27:43;;;;;;;;;;;;;;;7.28;90.22168;100779.8;;;;-74
2023/03/25 23:32:43;;;;;;;;;;;;;;;7.28;90.53027;100773;;;;-75
2023/03/25 23:37:45;;;;;;;;;;;;;;;7.26;89.99902;100766.8;;;;-76
2023/03/25 23:42:45;;;;;;;;;;;;;;;7.28;89.84961;100771.3;;;;-75
2023/03/25 23:44:38;;;;;;;5.6;1.5;;;;;;;;;;;;;-75
2023/03/25 23:47:43;;;;;;;;;;;;;;;7.27;90.33984;100775.7;;;;-76
2023/03/25 23:52:45;;;;;;;;;;;;;;;7.26;90.21973;100773;;;;-76
2023/03/25 23:57:43;;;;;;;;;;;;;;;7.27;90.01172;100773.6;;;;-75
